createdAt,value
2018-12-02T00:00:30.909Z,58.50
2018-12-02T00:02:59.959Z,58.60
2018-12-02T00:05:28.918Z,58.60
2018-12-02T00:07:57.370Z,59.00
2018-12-02T00:10:26.551Z,59.20
2018-12-02T00:12:54.915Z,59.10
2018-12-02T00:15:26.254Z,58.90
2018-12-02T00:17:55.736Z,59.10
2018-12-02T00:20:24.059Z,58.90
2018-12-02T00:22:52.413Z,59.00
2018-12-02T00:25:20.782Z,58.90
2018-12-02T00:27:56.871Z,58.90
2018-12-02T00:30:31.608Z,59.00
2018-12-02T00:33:00.066Z,59.40
2018-12-02T00:35:28.520Z,59.60
2018-12-02T00:37:58.152Z,59.50
2018-12-02T00:40:26.534Z,59.50
2018-12-02T00:42:56.954Z,59.30
2018-12-02T00:45:29.755Z,59.50
2018-12-02T00:47:58.074Z,59.10
2018-12-02T00:50:26.481Z,59.00
2018-12-02T00:52:55.884Z,59.60
2018-12-02T00:55:26.540Z,59.10
2018-12-02T00:57:54.950Z,59.20
2018-12-02T01:00:23.391Z,59.40
2018-12-02T01:02:51.966Z,59.40
2018-12-02T01:05:21.314Z,59.30
2018-12-02T01:07:49.686Z,59.20
2018-12-02T01:10:20.751Z,59.50
2018-12-02T01:12:50.170Z,59.60
2018-12-02T01:15:19.754Z,59.70
2018-12-02T01:17:48.091Z,59.40
2018-12-02T01:20:17.311Z,59.40
2018-12-02T01:22:45.601Z,59.20
2018-12-02T01:25:14.418Z,59.30
2018-12-02T01:27:43.287Z,59.40
2018-12-02T01:30:17.568Z,59.40
2018-12-02T01:32:45.929Z,59.00
2018-12-02T01:35:16.146Z,59.30
2018-12-02T01:37:44.585Z,58.80
2018-12-02T01:40:17.866Z,58.60
2018-12-02T01:42:46.251Z,58.50
2018-12-02T01:45:20.763Z,58.70
2018-12-02T01:47:49.079Z,58.90
2018-12-02T01:50:20.211Z,58.90
2018-12-02T01:52:50.317Z,59.10
2018-12-02T01:55:18.698Z,59.00
2018-12-02T01:57:47.088Z,59.30
2018-12-02T02:00:19.224Z,59.40
2018-12-02T02:02:47.670Z,59.50
2018-12-02T02:05:17.035Z,59.60
2018-12-02T02:07:45.417Z,59.50
2018-12-02T02:10:15.036Z,59.30
2018-12-02T02:12:43.419Z,59.50
2018-12-02T02:15:13.084Z,59.30
2018-12-02T02:17:41.439Z,59.40
2018-12-02T02:20:11.226Z,59.50
2018-12-02T02:22:39.738Z,59.30
2018-12-02T02:25:09.655Z,59.10
2018-12-02T02:27:38.436Z,59.20
2018-12-02T02:30:16.807Z,59.30
2018-12-02T02:32:45.258Z,59.20
2018-12-02T02:35:14.193Z,59.20
2018-12-02T02:37:42.594Z,59.10
2018-12-02T02:40:12.474Z,59.20
2018-12-02T02:42:41.120Z,59.40
2018-12-02T02:45:10.487Z,59.90
2018-12-02T02:47:38.879Z,59.20
2018-12-02T02:50:10.350Z,59.70
2018-12-02T02:52:39.128Z,59.60
2018-12-02T02:55:07.591Z,59.00
2018-12-02T02:57:35.963Z,58.80
2018-12-02T03:00:10.388Z,59.10
2018-12-02T03:02:39.073Z,59.10
2018-12-02T03:05:08.582Z,59.20
2018-12-02T03:07:37.047Z,59.50
2018-12-02T03:10:10.191Z,59.50
2018-12-02T03:12:38.643Z,59.50
2018-12-02T03:15:08.722Z,59.30
2018-12-02T03:17:37.197Z,59.40
2018-12-02T03:20:08.482Z,59.30
2018-12-02T03:22:36.958Z,59.30
2018-12-02T03:25:07.139Z,59.60
2018-12-02T03:27:35.883Z,59.70
2018-12-02T03:30:08.019Z,59.50
2018-12-02T03:32:36.503Z,59.60
2018-12-02T03:35:05.482Z,59.90
2018-12-02T03:37:33.859Z,60.20
2018-12-02T03:40:02.182Z,60.40
2018-12-02T03:42:30.499Z,60.20
2018-12-02T03:44:58.866Z,60.30
2018-12-02T03:47:27.162Z,60.50
2018-12-02T03:49:55.494Z,60.40
2018-12-02T03:52:23.794Z,60.70
2018-12-02T03:54:52.115Z,61.00
2018-12-02T03:57:20.423Z,61.70
2018-12-02T03:59:48.724Z,62.40
2018-12-02T04:02:17.187Z,62.40
2018-12-02T04:04:45.620Z,62.50
2018-12-02T04:07:14.065Z,63.80
2018-12-02T04:09:42.496Z,63.90
2018-12-02T04:12:10.862Z,63.60
2018-12-02T04:14:39.683Z,63.90
2018-12-02T04:17:07.985Z,63.80
2018-12-02T04:19:36.327Z,64.30
2018-12-02T04:22:04.946Z,64.40
2018-12-02T04:24:33.258Z,65.60
2018-12-02T04:27:01.551Z,65.50
2018-12-02T04:29:29.877Z,65.40
2018-12-02T04:31:58.163Z,65.60
2018-12-02T04:34:28.450Z,66.00
2018-12-02T04:36:56.874Z,66.70
2018-12-02T04:39:25.211Z,66.90
2018-12-02T04:41:53.497Z,67.80
2018-12-02T04:44:21.804Z,66.80
2018-12-02T04:46:50.073Z,67.50
2018-12-02T04:49:29.562Z,67.40
2018-12-02T04:51:57.865Z,68.00
2018-12-02T04:54:26.271Z,68.00
2018-12-02T04:56:54.622Z,68.50
2018-12-02T04:59:22.918Z,69.10
2018-12-02T05:01:51.240Z,69.20
2018-12-02T05:04:19.558Z,69.30
2018-12-02T05:06:47.915Z,69.20
2018-12-02T05:09:16.299Z,69.60
2018-12-02T05:11:45.030Z,69.00
2018-12-02T05:14:13.433Z,70.60
2018-12-02T05:16:41.795Z,70.80
2018-12-02T05:19:10.154Z,71.10
2018-12-02T05:21:39.126Z,71.10
2018-12-02T05:24:07.502Z,70.90
2018-12-02T05:26:35.807Z,71.80
2018-12-02T05:29:04.127Z,71.00
2018-12-02T05:31:32.447Z,71.60
2018-12-02T05:34:00.837Z,71.70
2018-12-02T05:36:29.131Z,71.40
2018-12-02T05:38:57.407Z,70.90
2018-12-02T05:41:31.087Z,71.80
2018-12-02T05:43:59.385Z,71.60
2018-12-02T05:46:27.694Z,72.20
2018-12-02T05:48:55.999Z,72.00
2018-12-02T05:51:24.346Z,72.50
2018-12-02T05:53:52.660Z,71.80
2018-12-02T05:56:20.974Z,71.80
2018-12-02T05:58:49.335Z,72.00
2018-12-02T06:01:17.651Z,72.00
2018-12-02T06:03:45.962Z,71.40
2018-12-02T06:06:14.250Z,72.20
2018-12-02T06:08:42.591Z,72.10
2018-12-02T06:11:10.950Z,72.70
2018-12-02T06:13:39.343Z,73.20
2018-12-02T06:16:07.723Z,73.80
2018-12-02T06:18:36.043Z,73.20
2018-12-02T06:21:04.389Z,73.10
2018-12-02T06:23:32.711Z,73.20
2018-12-02T06:26:01.040Z,73.80
2018-12-02T06:28:29.426Z,73.10
2018-12-02T06:30:57.795Z,74.10
2018-12-02T06:33:26.299Z,74.50
2018-12-02T06:35:54.614Z,75.10
2018-12-02T06:38:22.978Z,74.90
2018-12-02T06:40:51.431Z,74.40
2018-12-02T06:43:19.730Z,73.80
2018-12-02T06:45:48.028Z,74.00
2018-12-02T06:48:16.405Z,73.80
2018-12-02T06:50:44.793Z,73.60
2018-12-02T06:53:13.731Z,73.40
2018-12-02T06:55:48.891Z,72.70
2018-12-02T07:00:36.082Z,73.20
2018-12-02T07:03:27.171Z,73.60
2018-12-02T07:05:55.526Z,75.20
2018-12-02T07:08:23.866Z,75.70
2018-12-02T07:10:52.372Z,75.80
2018-12-02T07:13:20.768Z,75.20
2018-12-02T07:15:49.127Z,75.20
2018-12-02T07:18:19.581Z,74.30
2018-12-02T07:20:47.886Z,74.60
2018-12-02T07:23:16.325Z,73.70
2018-12-02T07:25:44.772Z,73.60
2018-12-02T07:28:13.139Z,73.30
2018-12-02T07:30:41.534Z,73.70
2018-12-02T07:33:09.886Z,74.00
2018-12-02T07:35:38.300Z,74.00
2018-12-02T07:38:13.539Z,74.60
2018-12-02T07:40:42.567Z,76.00
2018-12-02T07:43:12.139Z,74.60
2018-12-02T07:45:40.555Z,74.50
2018-12-02T07:48:08.998Z,75.00
2018-12-02T07:50:37.418Z,74.50
2018-12-02T07:53:06.042Z,75.20
2018-12-02T07:55:34.373Z,75.40
2018-12-02T07:58:02.682Z,75.80
2018-12-02T08:00:31.033Z,76.60
2018-12-02T08:02:59.411Z,76.20
2018-12-02T08:05:27.743Z,75.10
2018-12-02T08:07:56.070Z,75.50
2018-12-02T08:10:24.410Z,75.00
2018-12-02T08:12:52.751Z,74.90
2018-12-02T08:15:21.081Z,75.50
2018-12-02T08:17:49.451Z,75.60
2018-12-02T08:20:18.333Z,76.10
2018-12-02T08:22:51.325Z,75.30
2018-12-02T08:25:17.305Z,76.20
2018-12-02T08:27:45.667Z,75.30
2018-12-02T08:30:16.192Z,75.90
2018-12-02T08:32:44.900Z,75.60
2018-12-02T08:35:14.519Z,76.10
2018-12-02T08:37:44.088Z,75.80
2018-12-02T08:40:12.934Z,76.10
2018-12-02T08:42:41.544Z,76.70
2018-12-02T08:45:12.871Z,76.20
2018-12-02T08:47:42.041Z,75.90
2018-12-02T08:50:18.205Z,76.10
2018-12-02T08:52:47.886Z,75.90
2018-12-02T08:55:17.642Z,76.30
2018-12-02T08:57:46.325Z,76.30
2018-12-02T09:00:15.958Z,76.20
2018-12-02T09:02:45.581Z,76.60
2018-12-02T09:05:14.578Z,76.00
2018-12-02T09:07:43.430Z,76.10
2018-12-02T09:10:18.257Z,75.70
2018-12-02T09:12:47.240Z,75.80
2018-12-02T09:15:16.046Z,76.90
2018-12-02T09:17:44.436Z,77.10
2018-12-02T09:20:15.129Z,77.20
2018-12-02T09:22:43.638Z,77.70
2018-12-02T09:25:13.299Z,77.30
2018-12-02T09:27:41.725Z,77.10
2018-12-02T09:30:23.351Z,76.80
2018-12-02T09:32:51.715Z,76.90
2018-12-02T09:35:20.211Z,76.30
2018-12-02T09:37:48.533Z,76.10
2018-12-02T09:40:17.198Z,76.00
2018-12-02T09:42:50.631Z,75.80
2018-12-02T09:45:24.051Z,76.30
2018-12-02T09:47:52.816Z,76.00
2018-12-02T09:50:21.262Z,76.10
2018-12-02T09:52:49.639Z,76.20
2018-12-02T09:55:25.359Z,76.10
2018-12-02T09:57:54.285Z,76.20
2018-12-02T10:00:22.714Z,75.90
2018-12-02T10:02:51.023Z,75.50
2018-12-02T10:05:19.369Z,75.50
2018-12-02T10:07:47.785Z,75.00
2018-12-02T10:10:22.358Z,74.80
2018-12-02T10:12:53.031Z,75.00
2018-12-02T10:15:21.314Z,75.00
2018-12-02T10:17:49.693Z,75.10
2018-12-02T10:20:18.078Z,75.10
2018-12-02T10:22:46.982Z,74.80
2018-12-02T10:25:17.995Z,75.40
2018-12-02T10:27:46.555Z,74.80
2018-12-02T10:30:20.756Z,74.80
2018-12-02T10:32:49.442Z,74.90
2018-12-02T10:35:17.787Z,75.00
2018-12-02T10:37:46.249Z,74.80
2018-12-02T10:40:18.615Z,74.90
2018-12-02T10:42:47.288Z,74.70
2018-12-02T10:45:18.660Z,74.80
2018-12-02T10:47:47.003Z,74.90
2018-12-02T10:50:18.562Z,74.70
2018-12-02T10:52:47.053Z,74.70
2018-12-02T10:55:21.349Z,74.60
2018-12-02T10:57:49.797Z,75.00
2018-12-02T11:00:23.572Z,75.00
2018-12-02T11:02:52.072Z,74.80
2018-12-02T11:05:20.494Z,74.70
2018-12-02T11:07:48.975Z,74.50
2018-12-02T11:10:17.320Z,74.40
2018-12-02T11:12:45.711Z,74.70
2018-12-02T11:15:15.414Z,74.80
2018-12-02T11:17:44.769Z,74.70
2018-12-02T11:20:14.874Z,74.90
2018-12-02T11:22:43.608Z,74.90
2018-12-02T11:25:14.994Z,75.00
2018-12-02T11:27:43.912Z,75.20
2018-12-02T11:30:15.260Z,75.00
2018-12-02T11:32:44.623Z,74.90
2018-12-02T11:35:16.905Z,75.00
2018-12-02T11:37:45.755Z,74.90
2018-12-02T11:40:17.269Z,75.00
2018-12-02T11:42:45.908Z,74.80
2018-12-02T11:45:15.075Z,74.60
2018-12-02T11:47:45.532Z,74.80
2018-12-02T11:50:17.729Z,74.60
2018-12-02T11:52:46.171Z,74.80
2018-12-02T11:55:15.740Z,75.00
2018-12-02T11:57:44.421Z,74.60
2018-12-02T12:00:17.800Z,74.80
2018-12-02T12:02:46.230Z,74.70
2018-12-02T12:05:14.731Z,74.60
2018-12-02T12:07:44.849Z,75.10
2018-12-02T12:10:16.389Z,74.30
2018-12-02T12:12:50.305Z,74.30
2018-12-02T12:15:20.092Z,74.00
2018-12-02T12:17:48.431Z,73.90
2018-12-02T12:20:19.975Z,73.70
2018-12-02T12:22:48.574Z,73.50
2018-12-02T12:25:17.296Z,73.90
2018-12-02T12:27:45.978Z,74.20
2018-12-02T12:30:17.393Z,74.50
2018-12-02T12:32:46.116Z,74.40
2018-12-02T12:35:15.906Z,74.40
2018-12-02T12:37:44.968Z,74.60
2018-12-02T12:40:15.823Z,74.60
2018-12-02T12:42:46.271Z,74.40
2018-12-02T12:45:14.783Z,74.40
2018-12-02T12:47:44.480Z,74.70
2018-12-02T12:50:14.069Z,74.90
2018-12-02T12:52:42.634Z,74.90
2018-12-02T12:55:14.366Z,75.20
2018-12-02T12:57:43.052Z,75.20
2018-12-02T13:00:17.539Z,75.20
2018-12-02T13:02:46.535Z,75.40
2018-12-02T13:05:21.694Z,75.20
2018-12-02T13:07:50.573Z,75.50
2018-12-02T13:10:19.210Z,75.30
2018-12-02T13:12:47.731Z,75.40
2018-12-02T13:15:18.403Z,75.20
2018-12-02T13:17:59.867Z,75.00
2018-12-02T13:20:33.271Z,74.80
2018-12-02T13:23:01.674Z,74.80
2018-12-02T13:25:30.023Z,74.60
2018-12-02T13:27:58.375Z,74.40
2018-12-02T13:30:26.882Z,74.30
2018-12-02T13:32:55.569Z,74.20
2018-12-02T13:35:24.334Z,74.10
2018-12-02T13:37:52.674Z,74.20
2018-12-02T13:40:22.087Z,74.70
2018-12-02T13:42:52.685Z,74.70
2018-12-02T13:45:23.427Z,74.70
2018-12-02T13:47:51.798Z,74.60
2018-12-02T13:50:20.675Z,74.20
2018-12-02T13:52:50.302Z,74.00
2018-12-02T13:55:19.927Z,73.90
2018-12-02T13:57:48.431Z,73.80
2018-12-02T14:00:18.034Z,73.80
2018-12-02T14:02:49.730Z,73.60
2018-12-02T14:05:18.098Z,73.60
2018-12-02T14:07:46.886Z,73.40
2018-12-02T14:10:15.697Z,73.20
2018-12-02T14:12:47.437Z,73.00
2018-12-02T14:15:23.320Z,73.20
2018-12-02T14:17:54.565Z,73.40
2018-12-02T14:20:22.930Z,73.60
2018-12-02T14:22:51.375Z,73.70
2018-12-02T14:25:19.758Z,73.60
2018-12-02T14:27:49.431Z,73.60
2018-12-02T14:30:19.402Z,73.50
2018-12-02T14:33:52.323Z,73.70
2018-12-02T14:36:20.710Z,73.50
2018-12-02T14:38:49.252Z,73.70
2018-12-02T14:41:17.727Z,73.70
2018-12-02T14:43:46.114Z,73.70
2018-12-02T14:46:14.559Z,74.10
2018-12-02T14:48:42.977Z,73.50
2018-12-02T14:51:11.343Z,73.20
2018-12-02T14:53:39.841Z,73.40
2018-12-02T14:56:08.866Z,73.20
2018-12-02T14:58:37.259Z,73.10
2018-12-02T15:01:05.748Z,73.20
2018-12-02T15:03:34.335Z,73.10
2018-12-02T15:06:02.852Z,73.00
2018-12-02T15:08:31.223Z,73.00
2018-12-02T15:10:59.530Z,73.00
2018-12-02T15:13:27.923Z,73.00
2018-12-02T15:15:56.326Z,73.00
2018-12-02T15:18:24.703Z,73.10
2018-12-02T15:20:53.084Z,72.90
2018-12-02T15:23:21.482Z,73.00
2018-12-02T15:25:49.909Z,73.00
2018-12-02T15:28:18.341Z,73.00
2018-12-02T15:30:46.776Z,72.90
2018-12-02T15:33:15.147Z,72.80
2018-12-02T15:35:43.603Z,72.80
2018-12-02T15:38:12.014Z,72.60
2018-12-02T15:40:40.367Z,73.00
2018-12-02T15:43:08.695Z,72.70
2018-12-02T15:45:37.382Z,72.70
2018-12-02T15:48:06.114Z,72.70
2018-12-02T15:50:34.584Z,72.60
2018-12-02T15:53:03.046Z,72.50
2018-12-02T15:55:32.785Z,72.40
2018-12-02T15:58:02.721Z,72.70
2018-12-02T16:00:33.537Z,72.60
2018-12-02T16:03:01.976Z,72.80
2018-12-02T16:05:30.448Z,72.60
2018-12-02T16:07:58.913Z,72.80
2018-12-02T16:10:27.431Z,73.90
2018-12-02T16:12:55.842Z,73.30
2018-12-02T16:15:26.588Z,73.30
2018-12-02T16:17:54.998Z,73.20
2018-12-02T16:20:25.965Z,73.20
2018-12-02T16:22:54.394Z,73.20
2018-12-02T16:25:22.754Z,73.10
2018-12-02T16:27:51.146Z,73.00
2018-12-02T16:30:20.530Z,72.80
2018-12-02T16:32:56.150Z,73.40
2018-12-02T16:35:25.094Z,73.30
2018-12-02T16:37:55.305Z,73.20
2018-12-02T16:40:24.594Z,73.40
2018-12-02T16:42:55.072Z,74.30
2018-12-02T16:45:23.550Z,73.40
2018-12-02T16:47:53.153Z,73.60
2018-12-02T16:50:31.763Z,73.70
2018-12-02T16:53:01.744Z,73.50
2018-12-02T16:55:32.861Z,73.60
2018-12-02T16:58:08.071Z,73.40
2018-12-02T17:00:46.586Z,73.80
2018-12-02T17:03:14.961Z,73.90
2018-12-02T17:05:43.367Z,74.00
2018-12-02T17:08:11.770Z,74.20
2018-12-02T17:10:40.242Z,74.20
2018-12-02T17:13:08.875Z,74.10
2018-12-02T17:15:37.214Z,74.00
2018-12-02T17:18:05.824Z,73.90
2018-12-02T17:20:34.198Z,74.30
2018-12-02T17:23:02.538Z,74.40
2018-12-02T17:25:30.904Z,74.40
2018-12-02T17:27:59.274Z,74.70
2018-12-02T17:30:42.598Z,74.40
2018-12-02T17:33:11.185Z,74.60
2018-12-02T17:35:39.669Z,74.50
2018-12-02T17:38:08.105Z,74.50
2018-12-02T17:40:36.501Z,74.60
2018-12-02T17:43:06.466Z,74.40
2018-12-02T17:45:34.879Z,74.60
2018-12-02T17:48:03.231Z,74.80
2018-12-02T17:50:31.664Z,75.20
2018-12-02T17:53:00.138Z,75.20
2018-12-02T17:55:28.577Z,75.20
2018-12-02T17:57:56.994Z,75.20
2018-12-02T18:00:27.130Z,75.60
2018-12-02T18:03:00.142Z,75.70
2018-12-02T18:05:32.585Z,75.70
2018-12-02T18:08:01.040Z,76.40
2018-12-02T18:10:29.458Z,76.60
2018-12-02T18:12:57.781Z,77.40
2018-12-02T18:15:26.174Z,76.70
2018-12-02T18:17:54.611Z,76.50
2018-12-02T18:20:22.939Z,76.70
2018-12-02T18:22:51.486Z,77.00
2018-12-02T18:25:19.923Z,76.90
2018-12-02T18:27:48.244Z,77.20
2018-12-02T18:30:22.699Z,77.20
2018-12-02T18:32:55.290Z,77.20
2018-12-02T18:35:27.355Z,77.20
2018-12-02T18:37:58.303Z,76.80
2018-12-02T18:40:26.652Z,77.00
2018-12-02T18:42:55.074Z,77.00
2018-12-02T18:45:23.551Z,77.10
2018-12-02T18:47:52.175Z,76.50
2018-12-02T18:50:20.669Z,76.50
2018-12-02T18:52:49.904Z,76.60
2018-12-02T18:55:18.408Z,76.60
2018-12-02T18:57:46.985Z,76.60
2018-12-02T19:00:21.663Z,76.70
2018-12-02T19:02:54.227Z,76.70
2018-12-02T19:05:23.608Z,76.70
2018-12-02T19:07:52.687Z,76.80
2018-12-02T19:10:26.680Z,76.80
2018-12-02T19:12:55.488Z,76.80
2018-12-02T19:15:23.897Z,76.60
2018-12-02T19:17:52.315Z,76.60
2018-12-02T19:20:23.232Z,76.80
2018-12-02T19:22:53.277Z,76.70
2018-12-02T19:25:23.387Z,76.40
2018-12-02T19:27:51.766Z,76.40
2018-12-02T19:30:20.184Z,76.70
2018-12-02T19:32:48.756Z,76.70
2018-12-02T19:35:20.053Z,76.60
2018-12-02T19:37:50.469Z,76.70
2018-12-02T19:40:18.890Z,76.50
2018-12-02T19:42:47.423Z,76.80
2018-12-02T19:45:17.969Z,76.90
2018-12-02T19:47:46.279Z,76.80
2018-12-02T19:50:15.933Z,76.50
2018-12-02T19:52:44.347Z,76.20
2018-12-02T19:55:13.571Z,76.50
2018-12-02T19:57:43.423Z,76.70
2018-12-02T20:00:19.790Z,76.80
2018-12-02T20:02:48.218Z,76.80
2018-12-02T20:05:16.670Z,76.80
2018-12-02T20:07:46.830Z,77.40
2018-12-02T20:10:16.496Z,76.30
2018-12-02T20:12:44.946Z,76.30
2018-12-02T20:15:14.719Z,76.50
2018-12-02T20:17:43.672Z,76.20
2018-12-02T20:20:19.195Z,76.20
2018-12-02T20:22:47.652Z,76.40
2018-12-02T20:25:16.494Z,76.30
2018-12-02T20:27:44.912Z,76.00
2018-12-02T20:30:15.826Z,76.00
2018-12-02T20:32:44.234Z,76.00
2018-12-02T20:35:12.685Z,75.70
2018-12-02T20:37:41.539Z,75.80
2018-12-02T20:40:17.701Z,75.70
2018-12-02T20:42:46.730Z,75.70
2018-12-02T20:45:15.979Z,75.80
2018-12-02T20:47:44.566Z,75.90
2018-12-02T20:50:18.790Z,75.90
2018-12-02T20:52:47.943Z,76.30
2018-12-02T20:55:24.371Z,76.00
2018-12-02T20:57:54.651Z,76.20
2018-12-02T21:00:23.105Z,76.00
2018-12-02T21:02:59.842Z,76.00
2018-12-02T21:05:31.185Z,76.00
2018-12-02T21:07:59.739Z,76.10
2018-12-02T21:10:28.123Z,76.10
2018-12-02T21:12:56.632Z,76.20
2018-12-02T21:15:25.275Z,76.20
2018-12-02T21:17:53.711Z,76.20
2018-12-02T21:20:22.290Z,76.20
2018-12-02T21:22:50.769Z,76.00
2018-12-02T21:25:21.501Z,76.10
2018-12-02T21:27:49.923Z,76.10
2018-12-02T21:30:26.717Z,76.20
2018-12-02T21:32:55.135Z,76.30
2018-12-02T21:35:23.514Z,76.50
2018-12-02T21:37:53.447Z,76.90
2018-12-02T21:40:21.896Z,76.80
2018-12-02T21:42:50.361Z,77.00
2018-12-02T21:45:18.924Z,77.10
2018-12-02T21:47:51.582Z,77.30
2018-12-02T21:50:25.338Z,77.40
2018-12-02T21:52:53.833Z,77.20
2018-12-02T21:55:22.358Z,77.10
2018-12-02T21:57:50.778Z,76.80
2018-12-02T22:00:24.610Z,76.60
2018-12-02T22:02:53.644Z,76.90
2018-12-02T22:05:22.054Z,76.80
2018-12-02T22:07:51.254Z,76.70
2018-12-02T22:10:28.582Z,77.10
2018-12-02T22:12:56.904Z,77.10
2018-12-02T22:15:25.267Z,77.10
2018-12-02T22:17:53.703Z,77.00
2018-12-02T22:20:22.039Z,76.80
2018-12-02T22:22:50.544Z,77.20
2018-12-02T22:25:20.075Z,77.20
2018-12-02T22:27:50.785Z,77.00
2018-12-02T22:30:20.302Z,77.00
2018-12-02T22:32:48.704Z,77.00
2018-12-02T22:35:17.251Z,76.90
2018-12-02T22:37:46.518Z,76.90
2018-12-02T22:40:17.227Z,77.00
2018-12-02T22:42:45.642Z,77.10
2018-12-02T22:45:16.410Z,77.10
2018-12-02T22:47:44.795Z,77.20
2018-12-02T22:50:15.423Z,77.30
2018-12-02T22:52:44.441Z,77.20
2018-12-02T22:55:12.931Z,77.50
2018-12-02T22:57:41.369Z,77.60
2018-12-02T23:00:17.143Z,77.80
2018-12-02T23:02:55.274Z,77.70
2018-12-02T23:05:23.703Z,77.60
2018-12-02T23:07:53.159Z,77.50
2018-12-02T23:10:21.555Z,77.80
2018-12-02T23:12:50.051Z,78.10
2018-12-02T23:15:21.096Z,78.30
2018-12-02T23:17:49.534Z,78.10
2018-12-02T23:20:17.908Z,78.00
2018-12-02T23:22:46.320Z,78.00
2018-12-02T23:25:15.569Z,78.00
2018-12-02T23:27:46.004Z,78.10
2018-12-02T23:30:19.430Z,77.80
2018-12-02T23:32:47.919Z,77.60
2018-12-02T23:35:16.340Z,77.60
2018-12-02T23:37:44.770Z,77.40
2018-12-02T23:40:18.108Z,77.30
2018-12-02T23:42:46.490Z,77.20
2018-12-02T23:45:15.500Z,77.10
2018-12-02T23:47:43.992Z,77.60
2018-12-02T23:50:15.083Z,77.80
2018-12-02T23:52:43.608Z,77.80
2018-12-02T23:55:13.002Z,78.00
2018-12-02T23:57:41.375Z,78.10
